createdAt,value
2019-03-31T00:00:20.754Z,1013.84
2019-03-31T00:01:20.783Z,1013.82
2019-03-31T00:02:20.809Z,1013.87
2019-03-31T00:03:20.837Z,1013.87
2019-03-31T00:04:20.863Z,1013.90
2019-03-31T00:05:20.890Z,1013.90
2019-03-31T00:06:21.006Z,1013.94
2019-03-31T00:07:20.948Z,1013.91
2019-03-31T00:08:20.974Z,1013.88
2019-03-31T00:09:20.995Z,1013.90
2019-03-31T00:10:21.023Z,1013.88
2019-03-31T00:11:21.048Z,1013.95
2019-03-31T00:12:21.074Z,1013.92
2019-03-31T00:13:21.100Z,1013.92
2019-03-31T00:14:21.128Z,1013.88
2019-03-31T00:15:21.161Z,1013.88
2019-03-31T00:16:21.181Z,1013.87
2019-03-31T00:17:21.218Z,1013.87
2019-03-31T00:18:21.234Z,1013.82
2019-03-31T00:19:21.266Z,1013.82
2019-03-31T00:20:21.287Z,1013.87
2019-03-31T00:21:21.314Z,1013.86
2019-03-31T00:22:21.343Z,1013.85
2019-03-31T00:23:21.374Z,1013.85
2019-03-31T00:24:21.424Z,1013.88
2019-03-31T00:25:21.424Z,1013.92
2019-03-31T00:26:21.449Z,1013.94
2019-03-31T00:27:21.480Z,1013.88
2019-03-31T00:28:21.509Z,1013.91
2019-03-31T00:29:21.529Z,1013.93
2019-03-31T00:30:21.563Z,1013.92
2019-03-31T00:31:22.666Z,1013.88
2019-03-31T00:32:21.607Z,1013.91
2019-03-31T00:33:21.638Z,1013.90
2019-03-31T00:34:21.658Z,1013.91
2019-03-31T00:35:21.687Z,1013.94
2019-03-31T00:36:21.717Z,1013.91
2019-03-31T00:37:21.746Z,1013.89
2019-03-31T00:38:21.766Z,1013.89
2019-03-31T00:39:21.792Z,1013.90
2019-03-31T00:40:21.823Z,1013.86
2019-03-31T00:41:21.844Z,1013.86
2019-03-31T00:42:21.879Z,1013.90
2019-03-31T00:43:21.896Z,1013.89
2019-03-31T00:44:21.928Z,1013.85
2019-03-31T00:45:21.951Z,1013.88
2019-03-31T00:46:21.982Z,1013.84
2019-03-31T00:47:22.007Z,1013.86
2019-03-31T00:48:22.028Z,1013.83
2019-03-31T00:49:22.059Z,1013.85
2019-03-31T00:50:22.084Z,1013.86
2019-03-31T00:51:22.110Z,1013.89
2019-03-31T00:52:22.136Z,1013.97
2019-03-31T00:53:22.167Z,1013.95
2019-03-31T00:54:22.189Z,1013.95
2019-03-31T00:55:22.214Z,1013.96
2019-03-31T00:56:22.243Z,1013.90
2019-03-31T00:57:22.268Z,1013.94
2019-03-31T00:58:22.294Z,1013.97
2019-03-31T00:59:22.326Z,1013.95
2019-03-31T01:00:22.353Z,1013.99
2019-03-31T01:01:35.404Z,1014.02
2019-03-31T01:02:22.402Z,1014.01
2019-03-31T01:03:22.426Z,1014.00
2019-03-31T01:04:22.456Z,1014.04
2019-03-31T01:05:22.493Z,1014.04
2019-03-31T01:06:22.507Z,1014.01
2019-03-31T01:07:22.538Z,1013.99
2019-03-31T01:08:22.567Z,1014.03
2019-03-31T01:09:22.594Z,1014.05
2019-03-31T01:10:22.614Z,1014.07
2019-03-31T01:11:22.636Z,1014.01
2019-03-31T01:12:22.670Z,1014.07
2019-03-31T01:13:22.693Z,1014.01
2019-03-31T01:14:22.720Z,1014.02
2019-03-31T01:15:22.746Z,1014.02
2019-03-31T01:16:22.777Z,1014.07
2019-03-31T01:17:22.800Z,1014.02
2019-03-31T01:18:22.824Z,1014.03
2019-03-31T01:19:22.853Z,1014.05
2019-03-31T01:20:22.879Z,1014.05
2019-03-31T01:21:22.903Z,1014.05
2019-03-31T01:22:22.931Z,1014.04
2019-03-31T01:23:22.966Z,1014.03
2019-03-31T01:24:22.988Z,1014.01
2019-03-31T01:25:23.012Z,1014.03
2019-03-31T01:26:23.035Z,1014.02
2019-03-31T01:27:23.062Z,1014.07
2019-03-31T01:28:23.092Z,1014.06
2019-03-31T01:29:23.117Z,1014.07
2019-03-31T01:30:23.144Z,1014.04
2019-03-31T01:31:23.170Z,1014.10
2019-03-31T01:32:23.195Z,1014.06
2019-03-31T01:33:23.229Z,1014.07
2019-03-31T01:34:23.250Z,1014.13
2019-03-31T01:35:23.275Z,1014.10
2019-03-31T01:36:23.302Z,1014.11
2019-03-31T01:37:23.329Z,1014.13
2019-03-31T01:38:23.356Z,1014.10
2019-03-31T01:39:23.379Z,1014.10
2019-03-31T01:40:23.411Z,1014.15
2019-03-31T01:41:23.441Z,1014.11
2019-03-31T01:42:23.458Z,1014.06
2019-03-31T01:43:23.488Z,1014.13
2019-03-31T01:44:23.515Z,1014.13
2019-03-31T01:45:23.539Z,1014.15
2019-03-31T01:46:23.569Z,1014.09
2019-03-31T01:47:23.669Z,1014.14
2019-03-31T01:48:23.620Z,1014.20
2019-03-31T01:49:23.646Z,1014.21
2019-03-31T01:50:23.678Z,1014.18
2019-03-31T01:51:23.695Z,1014.27
2019-03-31T01:52:23.727Z,1014.27
2019-03-31T01:53:23.749Z,1014.22
2019-03-31T01:54:23.785Z,1014.25
2019-03-31T01:55:23.804Z,1014.25
2019-03-31T01:56:23.834Z,1014.29
2019-03-31T01:57:23.854Z,1014.35
2019-03-31T01:58:23.884Z,1014.34
2019-03-31T01:59:23.914Z,1014.33
2019-03-31T02:00:23.937Z,1014.37
2019-03-31T02:01:23.963Z,1014.43
2019-03-31T02:02:23.990Z,1014.42
2019-03-31T02:03:24.015Z,1014.42
2019-03-31T02:04:24.041Z,1014.41
2019-03-31T02:05:24.079Z,1014.42
2019-03-31T02:08:24.152Z,1014.50
2019-03-31T02:09:24.174Z,1014.51
2019-03-31T02:10:24.198Z,1014.47
2019-03-31T02:11:24.226Z,1014.46
2019-03-31T02:12:24.259Z,1014.46
2019-03-31T02:13:24.279Z,1014.44
2019-03-31T02:14:24.306Z,1014.47
2019-03-31T02:16:24.358Z,1014.51
2019-03-31T02:17:24.381Z,1014.43
2019-03-31T02:18:24.408Z,1014.48
2019-03-31T02:19:24.437Z,1014.53
2019-03-31T02:20:24.463Z,1014.57
2019-03-31T02:21:24.486Z,1014.50
2019-03-31T02:22:24.516Z,1014.52
2019-03-31T02:23:24.542Z,1014.54
2019-03-31T02:24:24.567Z,1014.49
2019-03-31T02:25:24.592Z,1014.54
2019-03-31T02:26:24.620Z,1014.48
2019-03-31T02:28:59.765Z,1014.50
2019-03-31T02:29:59.798Z,1014.48
2019-03-31T02:30:59.821Z,1014.48
2019-03-31T02:31:59.849Z,1014.49
2019-03-31T02:32:59.871Z,1014.51
2019-03-31T02:33:59.898Z,1014.50
2019-03-31T02:34:59.929Z,1014.51
2019-03-31T02:35:59.953Z,1014.50
2019-03-31T02:36:59.975Z,1014.54
2019-03-31T02:38:00.000Z,1014.50
2019-03-31T02:39:00.026Z,1014.53
2019-03-31T02:40:00.055Z,1014.53
2019-03-31T02:41:00.080Z,1014.57
2019-03-31T02:42:00.103Z,1014.54
2019-03-31T02:43:00.135Z,1014.54
2019-03-31T02:44:00.158Z,1014.58
2019-03-31T02:45:00.698Z,1014.62
2019-03-31T02:46:00.215Z,1014.62
2019-03-31T02:47:00.244Z,1014.65
2019-03-31T02:48:00.258Z,1014.67
2019-03-31T02:49:00.288Z,1014.63
2019-03-31T02:50:00.634Z,1014.65
2019-03-31T02:51:00.493Z,1014.62
2019-03-31T02:52:00.364Z,1014.58
2019-03-31T02:53:00.393Z,1014.62
2019-03-31T02:54:00.416Z,1014.62
2019-03-31T02:55:00.599Z,1014.62
2019-03-31T02:56:00.478Z,1014.65
2019-03-31T02:57:00.502Z,1014.61
2019-03-31T02:58:00.519Z,1014.66
2019-03-31T02:59:00.545Z,1014.65
2019-03-31T03:00:00.730Z,1014.65
2019-03-31T03:01:00.688Z,1014.63
2019-03-31T03:02:00.629Z,1014.67
2019-03-31T03:03:00.650Z,1014.73
2019-03-31T03:04:00.677Z,1014.68
2019-03-31T03:05:17.867Z,1014.70
2019-03-31T03:06:00.731Z,1014.69
2019-03-31T03:07:00.757Z,1014.76
2019-03-31T03:08:00.780Z,1014.74
2019-03-31T03:09:00.813Z,1014.73
2019-03-31T03:10:00.832Z,1014.75
2019-03-31T03:11:01.667Z,1014.72
2019-03-31T03:12:00.882Z,1014.65
2019-03-31T03:13:00.909Z,1014.73
2019-03-31T03:14:00.933Z,1014.69
2019-03-31T03:15:00.968Z,1014.68
2019-03-31T03:16:00.987Z,1014.67
2019-03-31T03:17:01.015Z,1014.67
2019-03-31T03:18:01.045Z,1014.70
2019-03-31T03:19:01.068Z,1014.67
2019-03-31T03:20:03.709Z,1014.67
2019-03-31T03:21:01.115Z,1014.67
2019-03-31T03:22:01.139Z,1014.69
2019-03-31T03:23:01.164Z,1014.69
2019-03-31T03:24:01.189Z,1014.75
2019-03-31T03:25:01.222Z,1014.78
2019-03-31T03:26:01.247Z,1014.74
2019-03-31T03:27:01.276Z,1014.75
2019-03-31T03:28:01.293Z,1014.80
2019-03-31T03:29:01.321Z,1014.80
2019-03-31T03:30:01.355Z,1014.79
2019-03-31T03:31:01.526Z,1014.81
2019-03-31T03:32:04.857Z,1014.85
2019-03-31T03:33:15.115Z,1014.81
2019-03-31T03:34:01.450Z,1014.86
2019-03-31T03:35:01.482Z,1014.87
2019-03-31T03:36:01.500Z,1014.90
2019-03-31T03:37:01.531Z,1014.87
2019-03-31T03:38:01.551Z,1014.90
2019-03-31T03:39:01.588Z,1014.92
2019-03-31T03:40:01.610Z,1014.97
2019-03-31T03:41:01.626Z,1014.98
2019-03-31T03:42:01.654Z,1014.90
2019-03-31T03:43:01.896Z,1014.92
2019-03-31T03:44:02.446Z,1014.93
2019-03-31T03:45:01.730Z,1014.92
2019-03-31T03:46:01.756Z,1014.93
2019-03-31T03:47:01.786Z,1014.95
2019-03-31T03:48:01.807Z,1014.90
2019-03-31T03:49:01.868Z,1014.92
2019-03-31T03:50:01.895Z,1014.95
2019-03-31T03:51:01.894Z,1014.93
2019-03-31T03:52:01.920Z,1014.97
2019-03-31T03:53:01.938Z,1014.90
2019-03-31T03:54:01.957Z,1014.91
2019-03-31T03:55:02.024Z,1014.93
2019-03-31T03:56:02.014Z,1014.92
2019-03-31T03:57:02.033Z,1014.94
2019-03-31T03:58:02.068Z,1014.99
2019-03-31T03:59:02.085Z,1014.94
2019-03-31T04:00:02.123Z,1014.96
2019-03-31T04:01:02.138Z,1014.94
2019-03-31T04:02:02.168Z,1014.95
2019-03-31T04:03:02.187Z,1014.92
2019-03-31T04:04:02.212Z,1014.95
2019-03-31T04:05:02.252Z,1014.97
2019-03-31T04:06:02.265Z,1014.95
2019-03-31T04:07:02.286Z,1014.98
2019-03-31T04:08:02.319Z,1015.00
2019-03-31T04:09:02.339Z,1015.00
2019-03-31T04:10:02.366Z,1014.91
2019-03-31T04:11:02.396Z,1014.95
2019-03-31T04:12:02.423Z,1014.94
2019-03-31T04:13:02.439Z,1014.95
2019-03-31T04:14:02.470Z,1014.97
2019-03-31T04:15:02.493Z,1015.00
2019-03-31T04:16:02.518Z,1014.99
2019-03-31T04:17:45.090Z,1014.99
2019-03-31T04:18:45.123Z,1014.93
2019-03-31T04:19:45.138Z,1014.95
2019-03-31T04:20:45.176Z,1015.02
2019-03-31T04:21:45.198Z,1015.05
2019-03-31T04:22:45.218Z,1015.03
2019-03-31T04:23:45.249Z,1015.03
2019-03-31T04:24:45.271Z,1015.06
2019-03-31T04:25:45.293Z,1015.03
2019-03-31T04:26:45.317Z,1015.06
2019-03-31T04:27:45.355Z,1015.04
2019-03-31T04:28:45.374Z,1015.07
2019-03-31T04:29:45.392Z,1015.14
2019-03-31T04:30:45.448Z,1015.14
2019-03-31T04:31:45.449Z,1015.17
2019-03-31T04:32:45.472Z,1015.22
2019-03-31T04:33:51.244Z,1015.23
2019-03-31T04:34:45.530Z,1015.17
2019-03-31T04:35:45.555Z,1015.19
2019-03-31T04:36:45.571Z,1015.22
2019-03-31T04:37:45.597Z,1015.25
2019-03-31T04:38:45.622Z,1015.30
2019-03-31T04:39:45.649Z,1015.30
2019-03-31T04:40:45.670Z,1015.30
2019-03-31T04:41:45.698Z,1015.30
2019-03-31T04:42:45.724Z,1015.33
2019-03-31T04:43:45.753Z,1015.29
2019-03-31T04:44:45.781Z,1015.32
2019-03-31T04:45:45.801Z,1015.30
2019-03-31T04:46:45.837Z,1015.33
2019-03-31T04:47:45.849Z,1015.32
2019-03-31T04:48:45.874Z,1015.30
2019-03-31T04:49:45.900Z,1015.39
2019-03-31T04:50:45.929Z,1015.42
2019-03-31T04:51:45.950Z,1015.47
2019-03-31T04:52:45.977Z,1015.42
2019-03-31T04:53:46.016Z,1015.45
2019-03-31T04:54:46.028Z,1015.45
2019-03-31T04:55:46.054Z,1015.47
2019-03-31T04:56:46.076Z,1015.51
2019-03-31T04:57:46.104Z,1015.53
2019-03-31T04:58:46.129Z,1015.58
2019-03-31T04:59:46.155Z,1015.57
2019-03-31T05:00:46.178Z,1015.65
2019-03-31T05:01:46.215Z,1015.62
2019-03-31T05:02:46.298Z,1015.64
2019-03-31T05:03:46.264Z,1015.70
2019-03-31T05:04:46.280Z,1015.64
2019-03-31T05:05:46.307Z,1015.73
2019-03-31T05:06:46.336Z,1015.79
2019-03-31T05:07:46.355Z,1015.76
2019-03-31T05:08:46.380Z,1015.77
2019-03-31T05:09:46.407Z,1015.71
2019-03-31T05:10:46.429Z,1015.74
2019-03-31T05:11:46.456Z,1015.76
2019-03-31T05:12:46.483Z,1015.76
2019-03-31T05:13:46.508Z,1015.81
2019-03-31T05:14:46.534Z,1015.77
2019-03-31T05:15:46.566Z,1015.78
2019-03-31T05:16:46.580Z,1015.87
2019-03-31T05:17:46.610Z,1015.90
2019-03-31T05:18:46.641Z,1015.88
2019-03-31T05:19:46.664Z,1015.89
2019-03-31T05:20:46.682Z,1015.88
2019-03-31T05:21:46.710Z,1015.87
2019-03-31T05:22:46.737Z,1015.91
2019-03-31T05:23:46.764Z,1015.84
2019-03-31T05:24:46.785Z,1015.91
2019-03-31T05:25:46.811Z,1015.93
2019-03-31T05:26:46.837Z,1015.91
2019-03-31T05:27:46.862Z,1015.95
2019-03-31T05:28:46.892Z,1015.95
2019-03-31T05:29:46.912Z,1016.03
2019-03-31T05:30:46.935Z,1016.04
2019-03-31T05:31:46.966Z,1016.01
2019-03-31T05:32:46.987Z,1016.06
2019-03-31T05:33:47.010Z,1016.11
2019-03-31T05:34:47.035Z,1016.09
2019-03-31T05:35:47.064Z,1016.14
2019-03-31T05:36:47.085Z,1016.13
2019-03-31T05:37:51.064Z,1016.14
2019-03-31T05:38:47.148Z,1016.10
2019-03-31T05:39:47.161Z,1016.12
2019-03-31T05:40:47.188Z,1016.08
2019-03-31T05:41:47.218Z,1016.16
2019-03-31T05:42:47.236Z,1016.30
2019-03-31T05:43:47.265Z,1016.26
2019-03-31T05:44:47.293Z,1016.30
2019-03-31T05:45:47.312Z,1016.34
2019-03-31T05:46:47.340Z,1016.40
2019-03-31T05:47:47.366Z,1016.48
2019-03-31T05:48:47.391Z,1016.47
2019-03-31T05:49:47.412Z,1016.43
2019-03-31T05:50:47.441Z,1016.51
2019-03-31T05:51:47.466Z,1016.51
2019-03-31T05:52:47.490Z,1016.56
2019-03-31T05:53:47.514Z,1016.59
2019-03-31T05:54:47.545Z,1016.61
2019-03-31T05:55:47.564Z,1016.66
2019-03-31T05:56:47.591Z,1016.63
2019-03-31T05:57:47.615Z,1016.63
2019-03-31T05:58:47.640Z,1016.65
2019-03-31T05:59:47.667Z,1016.68
2019-03-31T06:00:47.698Z,1016.71
2019-03-31T06:01:47.713Z,1016.70
2019-03-31T06:02:47.745Z,1016.66
2019-03-31T06:03:47.767Z,1016.68
2019-03-31T06:04:47.791Z,1016.69
2019-03-31T06:05:47.817Z,1016.71
2019-03-31T06:06:47.840Z,1016.75
2019-03-31T06:07:47.867Z,1016.75
2019-03-31T06:08:47.895Z,1016.75
2019-03-31T06:09:47.918Z,1016.77
2019-03-31T06:10:47.941Z,1016.77
2019-03-31T06:11:47.966Z,1016.74
2019-03-31T06:12:47.994Z,1016.79
2019-03-31T06:13:48.020Z,1016.79
2019-03-31T06:14:48.043Z,1016.82
2019-03-31T06:15:48.066Z,1016.80
2019-03-31T06:16:48.097Z,1016.82
2019-03-31T06:17:48.116Z,1016.77
2019-03-31T06:18:48.144Z,1016.80
2019-03-31T06:19:48.169Z,1016.76
2019-03-31T06:20:48.193Z,1016.81
2019-03-31T06:21:48.223Z,1016.80
2019-03-31T06:22:48.244Z,1016.80
2019-03-31T06:23:48.267Z,1016.80
2019-03-31T06:24:48.293Z,1016.83
2019-03-31T06:25:48.323Z,1016.83
2019-03-31T06:26:48.352Z,1016.86
2019-03-31T06:27:48.370Z,1016.89
2019-03-31T06:28:48.394Z,1016.86
2019-03-31T06:29:48.425Z,1016.86
2019-03-31T06:30:48.445Z,1016.88
2019-03-31T06:31:48.467Z,1016.89
2019-03-31T06:32:48.496Z,1016.97
2019-03-31T06:33:48.519Z,1017.00
2019-03-31T06:34:48.546Z,1016.94
2019-03-31T06:35:48.604Z,1016.99
2019-03-31T06:36:48.593Z,1017.01
2019-03-31T06:37:48.624Z,1017.06
2019-03-31T06:38:48.645Z,1017.28
2019-03-31T06:39:48.668Z,1017.03
2019-03-31T06:40:48.695Z,1017.24
2019-03-31T06:41:48.717Z,1017.04
2019-03-31T06:42:48.745Z,1017.00
2019-03-31T06:43:48.769Z,1017.01
2019-03-31T06:44:48.795Z,1017.09
2019-03-31T06:45:48.818Z,1017.04
2019-03-31T06:46:48.853Z,1017.09
2019-03-31T06:47:48.872Z,1017.38
2019-03-31T06:48:48.908Z,1017.41
2019-03-31T06:49:48.924Z,1017.45
2019-03-31T06:50:48.946Z,1017.40
2019-03-31T06:51:48.973Z,1017.42
2019-03-31T06:52:48.997Z,1017.47
2019-03-31T06:53:49.025Z,1017.27
2019-03-31T06:54:49.053Z,1017.50
2019-03-31T06:55:49.081Z,1017.47
2019-03-31T06:56:49.098Z,1017.46
2019-03-31T06:57:49.126Z,1017.49
2019-03-31T06:58:49.151Z,1017.41
2019-03-31T06:59:49.176Z,1017.51
2019-03-31T07:00:49.204Z,1017.51
2019-03-31T07:01:49.229Z,1017.33
2019-03-31T07:02:49.253Z,1017.32
2019-03-31T07:03:49.289Z,1017.28
2019-03-31T07:05:00.479Z,1017.11
2019-03-31T07:05:49.334Z,1017.18
2019-03-31T07:06:49.359Z,1017.57
2019-03-31T07:07:49.389Z,1017.56
2019-03-31T07:08:49.410Z,1017.53
2019-03-31T07:09:49.439Z,1017.54
2019-03-31T07:10:49.465Z,1017.55
2019-03-31T07:11:49.494Z,1017.55
2019-03-31T07:12:49.522Z,1017.53
2019-03-31T07:13:49.546Z,1017.55
2019-03-31T07:14:49.573Z,1017.55
2019-03-31T07:15:49.603Z,1017.56
2019-03-31T07:16:49.635Z,1017.61
2019-03-31T07:17:49.654Z,1017.64
2019-03-31T07:18:49.688Z,1017.68
2019-03-31T07:19:49.714Z,1017.69
2019-03-31T07:20:49.745Z,1017.72
2019-03-31T07:21:49.770Z,1017.74
2019-03-31T07:22:49.796Z,1017.72
2019-03-31T07:23:49.824Z,1017.64
2019-03-31T07:24:49.855Z,1017.52
2019-03-31T07:25:49.879Z,1017.44
2019-03-31T07:26:49.907Z,1017.39
2019-03-31T07:27:49.933Z,1017.33
2019-03-31T07:28:49.963Z,1017.33
2019-03-31T07:29:49.995Z,1017.31
2019-03-31T07:30:50.026Z,1017.42
2019-03-31T07:31:50.045Z,1017.42
2019-03-31T07:32:50.080Z,1017.55
2019-03-31T07:33:50.106Z,1017.68
2019-03-31T07:34:50.134Z,1017.59
2019-03-31T07:35:50.163Z,1017.35
2019-03-31T07:36:50.192Z,1017.31
2019-03-31T07:37:50.214Z,1017.29
2019-03-31T07:38:50.432Z,1017.31
2019-03-31T07:39:50.445Z,1017.27
2019-03-31T07:40:50.436Z,1017.25
2019-03-31T07:41:50.408Z,1017.27
2019-03-31T07:42:51.257Z,1017.25
2019-03-31T07:43:50.393Z,1017.25
2019-03-31T07:44:50.413Z,1017.30
2019-03-31T07:45:50.439Z,1017.30
2019-03-31T07:46:50.470Z,1017.28
2019-03-31T07:47:50.497Z,1017.25
2019-03-31T07:48:50.525Z,1017.29
2019-03-31T07:49:50.550Z,1017.26
2019-03-31T07:50:50.580Z,1017.34
2019-03-31T07:51:50.608Z,1017.30
2019-03-31T07:52:50.635Z,1017.28
2019-03-31T07:53:50.661Z,1017.26
2019-03-31T07:54:50.691Z,1017.23
2019-03-31T07:55:50.753Z,1017.25
2019-03-31T07:56:50.744Z,1017.39
2019-03-31T07:57:50.773Z,1017.53
2019-03-31T07:58:50.875Z,1017.55
2019-03-31T07:59:50.869Z,1017.46
2019-03-31T08:00:50.853Z,1017.45
2019-03-31T08:01:50.883Z,1017.42
2019-03-31T08:02:50.923Z,1017.37
2019-03-31T08:03:50.936Z,1017.36
2019-03-31T08:04:50.965Z,1017.32
2019-03-31T08:05:50.993Z,1017.27
2019-03-31T08:06:51.022Z,1017.37
2019-03-31T08:07:51.052Z,1017.31
2019-03-31T08:08:53.344Z,1017.35
2019-03-31T08:09:51.101Z,1017.31
2019-03-31T08:10:51.133Z,1017.35
2019-03-31T08:11:51.154Z,1017.33
2019-03-31T08:12:51.182Z,1017.37
2019-03-31T08:13:51.214Z,1017.43
2019-03-31T08:14:51.234Z,1017.38
2019-03-31T08:15:51.265Z,1017.33
2019-03-31T08:16:51.291Z,1017.37
2019-03-31T08:17:51.417Z,1017.38
2019-03-31T08:18:51.346Z,1017.35
2019-03-31T08:19:51.374Z,1017.43
2019-03-31T08:20:51.407Z,1017.40
2019-03-31T08:21:51.424Z,1017.37
2019-03-31T08:22:51.459Z,1017.36
2019-03-31T08:23:51.479Z,1017.35
2019-03-31T08:24:51.512Z,1017.37
2019-03-31T08:25:51.534Z,1017.50
2019-03-31T08:26:51.559Z,1017.47
2019-03-31T08:27:51.588Z,1017.51
2019-03-31T08:28:51.617Z,1017.55
2019-03-31T08:30:00.082Z,1017.54
2019-03-31T08:30:51.667Z,1017.59
2019-03-31T08:31:51.699Z,1017.58
2019-03-31T08:32:51.720Z,1017.58
2019-03-31T08:33:51.760Z,1017.60
2019-03-31T08:34:51.772Z,1017.60
2019-03-31T08:35:51.801Z,1017.66
2019-03-31T08:36:51.834Z,1017.63
2019-03-31T08:37:51.853Z,1017.67
2019-03-31T08:38:51.881Z,1017.65
2019-03-31T08:39:51.905Z,1017.64
2019-03-31T08:40:51.934Z,1017.57
2019-03-31T08:41:51.959Z,1017.65
2019-03-31T08:42:51.985Z,1017.63
2019-03-31T08:43:52.013Z,1017.65
2019-03-31T08:44:52.037Z,1017.67
2019-03-31T08:45:52.064Z,1017.72
2019-03-31T08:46:52.091Z,1017.72
2019-03-31T08:47:52.119Z,1017.68
2019-03-31T08:48:52.144Z,1017.71
2019-03-31T08:49:52.172Z,1017.73
2019-03-31T08:50:52.203Z,1017.78
2019-03-31T08:51:52.223Z,1017.75
2019-03-31T08:52:52.251Z,1017.81
2019-03-31T08:53:52.279Z,1017.82
2019-03-31T08:54:52.404Z,1017.85
2019-03-31T08:55:52.330Z,1017.86
2019-03-31T08:56:52.356Z,1017.84
2019-03-31T08:57:52.384Z,1017.88
2019-03-31T08:58:52.538Z,1017.86
2019-03-31T08:59:52.435Z,1017.95
2019-03-31T09:00:52.464Z,1018.07
2019-03-31T09:01:52.488Z,1018.21
2019-03-31T09:02:52.515Z,1018.20
2019-03-31T09:03:52.544Z,1018.20
2019-03-31T09:04:52.574Z,1018.26
2019-03-31T09:06:01.658Z,1018.18
2019-03-31T09:06:52.624Z,1018.15
2019-03-31T09:07:52.648Z,1018.14
2019-03-31T09:08:52.689Z,1018.07
2019-03-31T09:09:52.701Z,1018.06
2019-03-31T09:10:52.730Z,1018.01
2019-03-31T09:11:52.757Z,1017.94
2019-03-31T09:12:52.785Z,1017.93
2019-03-31T09:13:52.811Z,1017.96
2019-03-31T09:14:52.838Z,1017.92
2019-03-31T09:15:52.867Z,1017.94
2019-03-31T09:16:52.893Z,1017.91
2019-03-31T09:17:54.323Z,1017.91
2019-03-31T09:18:52.952Z,1017.94
2019-03-31T09:19:52.983Z,1017.91
2019-03-31T09:20:53.005Z,1017.96
2019-03-31T09:21:53.030Z,1017.89
2019-03-31T09:22:53.057Z,1017.97
2019-03-31T09:23:53.087Z,1017.93
2019-03-31T09:24:53.110Z,1017.94
2019-03-31T09:25:53.148Z,1018.00
2019-03-31T09:26:53.174Z,1017.99
2019-03-31T09:27:53.193Z,1018.01
2019-03-31T09:28:53.219Z,1018.05
2019-03-31T09:29:53.249Z,1018.07
2019-03-31T09:30:53.282Z,1018.15
2019-03-31T09:31:53.304Z,1018.18
2019-03-31T09:32:53.330Z,1018.17
2019-03-31T09:33:53.354Z,1018.17
2019-03-31T09:34:53.385Z,1018.21
2019-03-31T09:35:53.411Z,1018.26
2019-03-31T09:36:53.444Z,1018.22
2019-03-31T09:37:53.462Z,1018.19
2019-03-31T09:38:53.497Z,1018.19
2019-03-31T09:39:53.519Z,1018.18
2019-03-31T09:40:53.550Z,1018.26
2019-03-31T09:41:53.573Z,1018.21
2019-03-31T09:42:53.598Z,1018.17
2019-03-31T09:43:53.627Z,1018.19
2019-03-31T09:44:53.736Z,1018.16
2019-03-31T09:45:53.681Z,1018.17
2019-03-31T09:46:53.705Z,1018.22
2019-03-31T09:47:53.738Z,1018.24
2019-03-31T09:48:53.760Z,1018.24
2019-03-31T09:49:53.786Z,1018.26
2019-03-31T09:50:56.448Z,1018.27
2019-03-31T09:51:53.840Z,1018.28
2019-03-31T09:52:53.866Z,1018.28
2019-03-31T09:53:53.899Z,1018.28
2019-03-31T09:54:53.925Z,1018.34
2019-03-31T09:55:53.946Z,1018.30
2019-03-31T09:56:53.975Z,1018.28
2019-03-31T09:57:53.999Z,1018.25
2019-03-31T09:58:54.031Z,1018.26
2019-03-31T09:59:54.056Z,1018.25
2019-03-31T10:00:54.078Z,1018.25
2019-03-31T10:01:54.112Z,1018.24
2019-03-31T10:02:54.140Z,1018.26
2019-03-31T10:03:54.168Z,1018.27
2019-03-31T10:04:54.188Z,1018.28
2019-03-31T10:05:54.213Z,1018.32
2019-03-31T10:06:54.242Z,1018.27
2019-03-31T10:07:54.268Z,1018.28
2019-03-31T10:08:54.294Z,1018.26
2019-03-31T10:09:54.320Z,1018.25
2019-03-31T10:10:54.352Z,1018.29
2019-03-31T10:11:54.374Z,1018.23
2019-03-31T10:12:54.398Z,1018.25
2019-03-31T10:13:54.427Z,1018.22
2019-03-31T10:14:54.488Z,1018.27
2019-03-31T10:15:54.478Z,1018.28
2019-03-31T10:16:54.504Z,1018.27
2019-03-31T10:17:54.542Z,1018.28
2019-03-31T10:18:54.565Z,1018.27
2019-03-31T10:19:54.585Z,1018.20
2019-03-31T10:20:54.611Z,1018.23
2019-03-31T10:21:54.637Z,1018.25
2019-03-31T10:22:54.664Z,1018.21
2019-03-31T10:23:54.693Z,1018.20
2019-03-31T10:24:54.719Z,1018.25
2019-03-31T10:25:54.746Z,1018.23
2019-03-31T10:26:54.771Z,1018.23
2019-03-31T10:27:54.810Z,1018.28
2019-03-31T10:28:54.827Z,1018.23
2019-03-31T10:29:54.852Z,1018.28
2019-03-31T10:30:54.879Z,1018.25
2019-03-31T10:31:54.906Z,1018.24
2019-03-31T10:32:54.931Z,1018.29
2019-03-31T10:33:54.956Z,1018.29
2019-03-31T10:34:54.988Z,1018.25
2019-03-31T10:35:55.018Z,1018.28
2019-03-31T10:36:55.036Z,1018.30
2019-03-31T10:37:55.067Z,1018.28
2019-03-31T10:38:55.091Z,1018.31
2019-03-31T10:39:55.116Z,1018.30
2019-03-31T10:40:55.147Z,1018.27
2019-03-31T10:41:55.171Z,1018.33
2019-03-31T10:42:55.199Z,1018.33
2019-03-31T10:43:55.225Z,1018.28
2019-03-31T10:44:55.255Z,1018.27
2019-03-31T10:45:55.275Z,1018.29
2019-03-31T10:46:58.329Z,1018.27
2019-03-31T10:47:55.329Z,1018.29
2019-03-31T10:48:55.382Z,1018.29
2019-03-31T10:49:55.385Z,1018.34
2019-03-31T10:50:55.412Z,1018.31
2019-03-31T10:51:55.435Z,1018.31
2019-03-31T10:52:55.463Z,1018.32
2019-03-31T10:53:55.499Z,1018.31
2019-03-31T10:54:55.516Z,1018.34
2019-03-31T10:55:55.544Z,1018.33
2019-03-31T10:56:55.570Z,1018.32
2019-03-31T10:57:55.597Z,1018.30
2019-03-31T10:58:55.623Z,1018.29
2019-03-31T10:59:55.658Z,1018.32
2019-03-31T11:00:55.680Z,1018.32
2019-03-31T11:01:55.720Z,1018.32
2019-03-31T11:02:55.730Z,1018.34
2019-03-31T11:03:55.763Z,1018.30
2019-03-31T11:04:55.802Z,1018.31
2019-03-31T11:05:55.821Z,1018.35
2019-03-31T11:06:59.119Z,1018.35
2019-03-31T11:07:55.865Z,1018.40
2019-03-31T11:08:55.887Z,1018.39
2019-03-31T11:09:55.915Z,1018.39
2019-03-31T11:10:55.943Z,1018.37
2019-03-31T11:11:55.971Z,1018.41
2019-03-31T11:12:56.005Z,1018.42
2019-03-31T11:13:56.022Z,1018.43
2019-03-31T11:14:56.051Z,1018.40
2019-03-31T11:15:57.618Z,1018.46
2019-03-31T11:16:56.175Z,1018.39
2019-03-31T11:17:56.128Z,1018.44
2019-03-31T11:18:56.155Z,1018.45
2019-03-31T11:19:56.180Z,1018.44
2019-03-31T11:20:56.216Z,1018.49
2019-03-31T11:21:56.232Z,1018.46
2019-03-31T11:22:56.264Z,1018.45
2019-03-31T11:23:56.286Z,1018.45
2019-03-31T11:24:56.314Z,1018.46
2019-03-31T11:25:56.346Z,1018.49
2019-03-31T11:26:56.369Z,1018.49
2019-03-31T11:27:56.451Z,1018.46
2019-03-31T11:28:56.425Z,1018.45
2019-03-31T11:29:56.444Z,1018.49
2019-03-31T11:30:56.475Z,1018.50
2019-03-31T11:31:56.498Z,1018.50
2019-03-31T11:32:56.525Z,1018.51
2019-03-31T11:33:56.553Z,1018.55
2019-03-31T11:34:56.579Z,1018.53
2019-03-31T11:35:56.606Z,1018.59
2019-03-31T11:36:56.631Z,1018.55
2019-03-31T11:37:56.657Z,1018.54
2019-03-31T11:38:56.690Z,1018.55
2019-03-31T11:39:56.714Z,1018.53
2019-03-31T11:40:56.735Z,1018.54
2019-03-31T11:41:56.762Z,1018.54
2019-03-31T11:42:56.787Z,1018.49
2019-03-31T11:43:56.813Z,1018.56
2019-03-31T11:44:56.841Z,1018.58
2019-03-31T11:45:56.867Z,1018.57
2019-03-31T11:46:56.893Z,1018.56
2019-03-31T11:47:56.919Z,1018.56
2019-03-31T11:48:56.952Z,1018.57
2019-03-31T11:49:56.970Z,1018.59
2019-03-31T11:51:00.266Z,1018.60
2019-03-31T11:51:57.023Z,1018.57
2019-03-31T11:52:57.052Z,1018.62
2019-03-31T11:53:57.074Z,1018.61
2019-03-31T11:54:57.101Z,1018.59
2019-03-31T11:55:57.130Z,1018.63
2019-03-31T11:56:57.155Z,1018.67
2019-03-31T11:57:57.183Z,1018.71
2019-03-31T11:58:57.214Z,1018.59
2019-03-31T11:59:57.235Z,1018.68
2019-03-31T12:00:57.262Z,1018.65
2019-03-31T12:01:57.287Z,1018.59
2019-03-31T12:02:57.314Z,1018.63
2019-03-31T12:03:57.340Z,1018.60
2019-03-31T12:04:57.366Z,1018.61
2019-03-31T12:05:57.391Z,1018.58
2019-03-31T12:06:57.422Z,1018.53
2019-03-31T12:07:57.448Z,1018.53
2019-03-31T12:08:57.472Z,1018.54
2019-03-31T12:09:57.505Z,1018.51
2019-03-31T12:10:57.524Z,1018.49